sensor_id;sensor_type;location;lat;lon;timestamp;P1;durP1;ratioP1;P2;durP2;ratioP2
76818;SDS011;65772;51.096;17.006;2023-04-06T00:00:30;42.10;;;20.20;;
76818;SDS011;65772;51.096;17.006;2023-04-06T00:03:01;45.90;;;21.20;;
76818;SDS011;65772;51.096;17.006;2023-04-06T00:05:32;46.90;;;22.50;;
76818;SDS011;65772;51.096;17.006;2023-04-06T00:08:02;48.00;;;22.70;;
76818;SDS011;65772;51.096;17.006;2023-04-06T00:10:33;42.50;;;20.50;;
76818;SDS011;65772;51.096;17.006;2023-04-06T00:13:05;44.10;;;21.60;;
76818;SDS011;65772;51.096;17.006;2023-04-06T00:15:35;44.40;;;21.90;;
76818;SDS011;65772;51.096;17.006;2023-04-06T00:18:06;44.00;;;22.70;;
76818;SDS011;65772;51.096;17.006;2023-04-06T00:20:37;46.20;;;23.80;;
76818;SDS011;65772;51.096;17.006;2023-04-06T00:23:07;48.10;;;23.70;;
76818;SDS011;65772;51.096;17.006;2023-04-06T00:25:38;51.80;;;23.70;;
76818;SDS011;65772;51.096;17.006;2023-04-06T00:28:08;44.20;;;23.50;;
76818;SDS011;65772;51.096;17.006;2023-04-06T00:30:39;48.80;;;22.90;;
76818;SDS011;65772;51.096;17.006;2023-04-06T00:33:10;51.30;;;25.10;;
76818;SDS011;65772;51.096;17.006;2023-04-06T00:35:41;45.50;;;23.00;;
76818;SDS011;65772;51.096;17.006;2023-04-06T00:38:12;45.70;;;22.50;;
76818;SDS011;65772;51.096;17.006;2023-04-06T00:40:43;43.00;;;22.70;;
76818;SDS011;65772;51.096;17.006;2023-04-06T00:43:14;45.50;;;23.40;;
76818;SDS011;65772;51.096;17.006;2023-04-06T00:45:44;42.40;;;22.00;;
76818;SDS011;65772;51.096;17.006;2023-04-06T00:48:15;45.30;;;22.50;;
76818;SDS011;65772;51.096;17.006;2023-04-06T00:50:46;48.20;;;23.70;;
76818;SDS011;65772;51.096;17.006;2023-04-06T00:53:18;46.40;;;23.70;;
76818;SDS011;65772;51.096;17.006;2023-04-06T00:55:49;46.50;;;23.00;;
76818;SDS011;65772;51.096;17.006;2023-04-06T00:58:20;49.60;;;22.90;;
76818;SDS011;65772;51.096;17.006;2023-04-06T01:00:55;47.10;;;23.00;;
76818;SDS011;65772;51.096;17.006;2023-04-06T01:03:26;45.80;;;22.80;;
76818;SDS011;65772;51.096;17.006;2023-04-06T01:05:57;46.00;;;22.20;;
76818;SDS011;65772;51.096;17.006;2023-04-06T01:08:33;51.40;;;23.40;;
76818;SDS011;65772;51.096;17.006;2023-04-06T01:13:54;50.40;;;23.10;;
76818;SDS011;65772;51.096;17.006;2023-04-06T01:16:44;43.30;;;23.00;;
76818;SDS011;65772;51.096;17.006;2023-04-06T01:19:18;50.10;;;22.50;;
76818;SDS011;65772;51.096;17.006;2023-04-06T01:21:52;47.70;;;21.70;;
76818;SDS011;65772;51.096;17.006;2023-04-06T01:24:39;47.10;;;22.60;;
76818;SDS011;65772;51.096;17.006;2023-04-06T01:27:14;53.20;;;24.40;;
76818;SDS011;65772;51.096;17.006;2023-04-06T01:29:58;54.70;;;25.20;;
76818;SDS011;65772;51.096;17.006;2023-04-06T01:33:04;49.30;;;24.10;;
76818;SDS011;65772;51.096;17.006;2023-04-06T01:35:42;54.80;;;24.90;;
76818;SDS011;65772;51.096;17.006;2023-04-06T01:38:15;49.30;;;23.90;;
76818;SDS011;65772;51.096;17.006;2023-04-06T01:40:47;48.50;;;24.60;;
76818;SDS011;65772;51.096;17.006;2023-04-06T01:43:19;47.90;;;24.70;;
76818;SDS011;65772;51.096;17.006;2023-04-06T01:46:10;49.60;;;25.40;;
76818;SDS011;65772;51.096;17.006;2023-04-06T01:51:18;52.20;;;23.20;;
76818;SDS011;65772;51.096;17.006;2023-04-06T01:53:53;54.90;;;24.20;;
76818;SDS011;65772;51.096;17.006;2023-04-06T01:56:29;46.60;;;24.30;;
76818;SDS011;65772;51.096;17.006;2023-04-06T01:59:10;50.80;;;24.30;;
76818;SDS011;65772;51.096;17.006;2023-04-06T02:01:42;56.60;;;25.30;;
76818;SDS011;65772;51.096;17.006;2023-04-06T02:04:13;51.50;;;25.40;;
76818;SDS011;65772;51.096;17.006;2023-04-06T02:06:44;53.70;;;25.60;;
76818;SDS011;65772;51.096;17.006;2023-04-06T02:09:16;53.60;;;27.40;;
76818;SDS011;65772;51.096;17.006;2023-04-06T02:11:47;57.30;;;25.50;;
76818;SDS011;65772;51.096;17.006;2023-04-06T02:14:18;58.00;;;27.00;;
76818;SDS011;65772;51.096;17.006;2023-04-06T02:16:51;46.10;;;24.10;;
76818;SDS011;65772;51.096;17.006;2023-04-06T02:19:22;56.20;;;25.50;;
76818;SDS011;65772;51.096;17.006;2023-04-06T02:21:54;54.20;;;25.40;;
76818;SDS011;65772;51.096;17.006;2023-04-06T02:24:24;53.50;;;25.90;;
76818;SDS011;65772;51.096;17.006;2023-04-06T02:26:55;56.00;;;25.70;;
76818;SDS011;65772;51.096;17.006;2023-04-06T02:29:25;50.50;;;24.70;;
76818;SDS011;65772;51.096;17.006;2023-04-06T02:31:56;54.40;;;26.10;;
76818;SDS011;65772;51.096;17.006;2023-04-06T02:34:30;53.90;;;26.50;;
76818;SDS011;65772;51.096;17.006;2023-04-06T02:37:01;48.90;;;27.00;;
76818;SDS011;65772;51.096;17.006;2023-04-06T02:39:31;51.40;;;26.60;;
76818;SDS011;65772;51.096;17.006;2023-04-06T02:42:03;53.50;;;26.20;;
76818;SDS011;65772;51.096;17.006;2023-04-06T02:44:34;51.90;;;25.80;;
76818;SDS011;65772;51.096;17.006;2023-04-06T02:47:05;53.90;;;26.40;;
76818;SDS011;65772;51.096;17.006;2023-04-06T02:49:36;53.00;;;26.90;;
76818;SDS011;65772;51.096;17.006;2023-04-06T02:52:07;50.40;;;25.70;;
76818;SDS011;65772;51.096;17.006;2023-04-06T02:54:37;53.20;;;25.90;;
76818;SDS011;65772;51.096;17.006;2023-04-06T02:57:08;51.80;;;26.20;;
76818;SDS011;65772;51.096;17.006;2023-04-06T02:59:42;88.00;;;45.10;;
76818;SDS011;65772;51.096;17.006;2023-04-06T03:02:17;61.40;;;32.00;;
76818;SDS011;65772;51.096;17.006;2023-04-06T03:04:48;51.20;;;26.30;;
76818;SDS011;65772;51.096;17.006;2023-04-06T03:07:23;52.80;;;26.10;;
76818;SDS011;65772;51.096;17.006;2023-04-06T03:09:55;47.50;;;24.30;;
76818;SDS011;65772;51.096;17.006;2023-04-06T03:12:25;53.60;;;26.40;;
76818;SDS011;65772;51.096;17.006;2023-04-06T03:15:25;50.20;;;25.00;;
76818;SDS011;65772;51.096;17.006;2023-04-06T03:18:03;49.40;;;25.50;;
76818;SDS011;65772;51.096;17.006;2023-04-06T03:20:38;50.70;;;25.30;;
76818;SDS011;65772;51.096;17.006;2023-04-06T03:23:09;50.40;;;25.10;;
76818;SDS011;65772;51.096;17.006;2023-04-06T03:25:41;57.20;;;25.10;;
76818;SDS011;65772;51.096;17.006;2023-04-06T03:28:15;52.70;;;26.50;;
76818;SDS011;65772;51.096;17.006;2023-04-06T03:30:50;53.40;;;26.00;;
76818;SDS011;65772;51.096;17.006;2023-04-06T03:33:35;56.20;;;27.80;;
76818;SDS011;65772;51.096;17.006;2023-04-06T03:36:08;52.70;;;28.40;;
76818;SDS011;65772;51.096;17.006;2023-04-06T03:38:41;54.90;;;27.10;;
76818;SDS011;65772;51.096;17.006;2023-04-06T03:41:13;50.80;;;26.30;;
76818;SDS011;65772;51.096;17.006;2023-04-06T03:43:49;52.20;;;25.70;;
76818;SDS011;65772;51.096;17.006;2023-04-06T03:46:20;57.70;;;27.50;;
76818;SDS011;65772;51.096;17.006;2023-04-06T03:48:53;46.00;;;26.10;;
76818;SDS011;65772;51.096;17.006;2023-04-06T03:51:24;52.50;;;27.20;;
76818;SDS011;65772;51.096;17.006;2023-04-06T03:53:56;52.30;;;26.30;;
76818;SDS011;65772;51.096;17.006;2023-04-06T03:56:27;58.70;;;28.10;;
76818;SDS011;65772;51.096;17.006;2023-04-06T03:58:57;53.00;;;28.20;;
76818;SDS011;65772;51.096;17.006;2023-04-06T04:01:29;71.40;;;36.90;;
76818;SDS011;65772;51.096;17.006;2023-04-06T04:04:00;67.00;;;30.10;;
76818;SDS011;65772;51.096;17.006;2023-04-06T04:06:31;56.10;;;28.50;;
76818;SDS011;65772;51.096;17.006;2023-04-06T04:11:33;48.90;;;22.30;;
76818;SDS011;65772;51.096;17.006;2023-04-06T04:14:04;51.80;;;24.30;;
76818;SDS011;65772;51.096;17.006;2023-04-06T04:16:35;55.30;;;25.20;;
76818;SDS011;65772;51.096;17.006;2023-04-06T04:19:07;52.30;;;25.00;;
76818;SDS011;65772;51.096;17.006;2023-04-06T04:21:43;71.00;;;32.10;;
76818;SDS011;65772;51.096;17.006;2023-04-06T04:24:18;57.40;;;26.90;;
76818;SDS011;65772;51.096;17.006;2023-04-06T04:26:48;53.70;;;25.70;;
76818;SDS011;65772;51.096;17.006;2023-04-06T04:29:19;56.60;;;24.80;;
76818;SDS011;65772;51.096;17.006;2023-04-06T04:31:50;48.40;;;23.60;;
76818;SDS011;65772;51.096;17.006;2023-04-06T04:34:21;54.60;;;25.90;;
76818;SDS011;65772;51.096;17.006;2023-04-06T04:36:53;52.70;;;26.80;;
76818;SDS011;65772;51.096;17.006;2023-04-06T04:39:32;55.60;;;26.10;;
76818;SDS011;65772;51.096;17.006;2023-04-06T04:42:05;49.90;;;24.90;;
76818;SDS011;65772;51.096;17.006;2023-04-06T04:44:36;56.90;;;25.80;;
76818;SDS011;65772;51.096;17.006;2023-04-06T04:47:07;51.70;;;25.60;;
76818;SDS011;65772;51.096;17.006;2023-04-06T04:49:44;47.80;;;25.00;;
76818;SDS011;65772;51.096;17.006;2023-04-06T04:52:17;51.30;;;24.20;;
76818;SDS011;65772;51.096;17.006;2023-04-06T04:55:03;48.40;;;24.70;;
76818;SDS011;65772;51.096;17.006;2023-04-06T04:57:34;60.50;;;28.10;;
76818;SDS011;65772;51.096;17.006;2023-04-06T05:00:06;57.30;;;25.90;;
76818;SDS011;65772;51.096;17.006;2023-04-06T05:02:39;47.30;;;25.40;;
76818;SDS011;65772;51.096;17.006;2023-04-06T05:05:16;58.70;;;26.80;;
76818;SDS011;65772;51.096;17.006;2023-04-06T05:07:47;62.10;;;28.90;;
76818;SDS011;65772;51.096;17.006;2023-04-06T05:10:28;61.60;;;29.80;;
76818;SDS011;65772;51.096;17.006;2023-04-06T05:13:00;64.70;;;31.90;;
76818;SDS011;65772;51.096;17.006;2023-04-06T05:15:30;62.80;;;30.80;;
76818;SDS011;65772;51.096;17.006;2023-04-06T05:18:07;57.30;;;30.20;;
76818;SDS011;65772;51.096;17.006;2023-04-06T05:20:38;64.30;;;30.00;;
76818;SDS011;65772;51.096;17.006;2023-04-06T05:23:09;55.30;;;30.40;;
76818;SDS011;65772;51.096;17.006;2023-04-06T05:25:40;60.80;;;30.30;;
76818;SDS011;65772;51.096;17.006;2023-04-06T05:28:17;65.90;;;29.90;;
76818;SDS011;65772;51.096;17.006;2023-04-06T05:30:48;59.90;;;29.70;;
76818;SDS011;65772;51.096;17.006;2023-04-06T05:33:19;59.20;;;30.00;;
76818;SDS011;65772;51.096;17.006;2023-04-06T05:36:22;61.10;;;29.60;;
76818;SDS011;65772;51.096;17.006;2023-04-06T05:38:53;62.60;;;31.10;;
76818;SDS011;65772;51.096;17.006;2023-04-06T05:41:33;55.20;;;27.90;;
76818;SDS011;65772;51.096;17.006;2023-04-06T05:44:03;57.30;;;29.10;;
76818;SDS011;65772;51.096;17.006;2023-04-06T05:46:35;54.50;;;27.70;;
76818;SDS011;65772;51.096;17.006;2023-04-06T05:49:06;55.70;;;27.60;;
76818;SDS011;65772;51.096;17.006;2023-04-06T05:51:37;58.40;;;28.30;;
76818;SDS011;65772;51.096;17.006;2023-04-06T05:54:07;58.80;;;30.30;;
76818;SDS011;65772;51.096;17.006;2023-04-06T05:56:38;51.90;;;28.60;;
76818;SDS011;65772;51.096;17.006;2023-04-06T05:59:10;54.60;;;26.40;;
76818;SDS011;65772;51.096;17.006;2023-04-06T06:01:41;52.50;;;26.10;;
76818;SDS011;65772;51.096;17.006;2023-04-06T06:04:13;55.80;;;26.30;;
76818;SDS011;65772;51.096;17.006;2023-04-06T06:06:44;50.00;;;26.00;;
76818;SDS011;65772;51.096;17.006;2023-04-06T06:09:18;47.20;;;24.50;;
76818;SDS011;65772;51.096;17.006;2023-04-06T06:11:59;49.80;;;24.60;;
76818;SDS011;65772;51.096;17.006;2023-04-06T06:14:30;45.20;;;24.40;;
76818;SDS011;65772;51.096;17.006;2023-04-06T06:17:00;47.80;;;25.20;;
76818;SDS011;65772;51.096;17.006;2023-04-06T06:19:31;46.70;;;25.00;;
76818;SDS011;65772;51.096;17.006;2023-04-06T06:22:03;46.70;;;24.50;;
76818;SDS011;65772;51.096;17.006;2023-04-06T06:24:36;43.20;;;24.80;;
76818;SDS011;65772;51.096;17.006;2023-04-06T06:27:07;48.90;;;24.00;;
76818;SDS011;65772;51.096;17.006;2023-04-06T06:29:38;46.90;;;24.30;;
76818;SDS011;65772;51.096;17.006;2023-04-06T06:32:08;45.00;;;23.80;;
76818;SDS011;65772;51.096;17.006;2023-04-06T06:34:39;48.90;;;24.60;;
76818;SDS011;65772;51.096;17.006;2023-04-06T06:37:10;45.50;;;22.50;;
76818;SDS011;65772;51.096;17.006;2023-04-06T06:39:41;45.90;;;24.40;;
76818;SDS011;65772;51.096;17.006;2023-04-06T06:42:12;49.20;;;25.00;;
76818;SDS011;65772;51.096;17.006;2023-04-06T06:44:58;46.40;;;25.50;;
76818;SDS011;65772;51.096;17.006;2023-04-06T06:47:28;42.40;;;23.70;;
76818;SDS011;65772;51.096;17.006;2023-04-06T06:49:59;45.10;;;23.30;;
76818;SDS011;65772;51.096;17.006;2023-04-06T06:52:30;53.40;;;25.90;;
76818;SDS011;65772;51.096;17.006;2023-04-06T06:55:02;44.80;;;24.20;;
76818;SDS011;65772;51.096;17.006;2023-04-06T06:57:32;43.40;;;24.10;;
76818;SDS011;65772;51.096;17.006;2023-04-06T07:00:03;46.50;;;25.30;;
76818;SDS011;65772;51.096;17.006;2023-04-06T07:02:39;41.80;;;23.00;;
76818;SDS011;65772;51.096;17.006;2023-04-06T07:05:09;49.00;;;24.40;;
76818;SDS011;65772;51.096;17.006;2023-04-06T07:07:56;43.30;;;24.60;;
76818;SDS011;65772;51.096;17.006;2023-04-06T07:10:27;45.30;;;24.70;;
76818;SDS011;65772;51.096;17.006;2023-04-06T07:12:57;48.70;;;25.00;;
76818;SDS011;65772;51.096;17.006;2023-04-06T07:15:28;43.70;;;24.00;;
76818;SDS011;65772;51.096;17.006;2023-04-06T07:17:58;42.80;;;23.50;;
76818;SDS011;65772;51.096;17.006;2023-04-06T07:20:29;38.90;;;23.10;;
76818;SDS011;65772;51.096;17.006;2023-04-06T07:22:59;41.70;;;23.30;;
76818;SDS011;65772;51.096;17.006;2023-04-06T07:25:31;43.50;;;23.50;;
76818;SDS011;65772;51.096;17.006;2023-04-06T07:28:02;46.00;;;24.00;;
76818;SDS011;65772;51.096;17.006;2023-04-06T07:30:34;44.70;;;22.40;;
76818;SDS011;65772;51.096;17.006;2023-04-06T07:33:05;34.60;;;20.50;;
76818;SDS011;65772;51.096;17.006;2023-04-06T07:35:36;37.00;;;20.40;;
76818;SDS011;65772;51.096;17.006;2023-04-06T07:38:07;34.90;;;20.40;;
76818;SDS011;65772;51.096;17.006;2023-04-06T07:40:38;31.10;;;18.60;;
76818;SDS011;65772;51.096;17.006;2023-04-06T07:43:08;30.10;;;18.00;;
76818;SDS011;65772;51.096;17.006;2023-04-06T07:45:39;32.40;;;18.40;;
76818;SDS011;65772;51.096;17.006;2023-04-06T07:48:10;34.80;;;19.80;;
76818;SDS011;65772;51.096;17.006;2023-04-06T07:50:40;35.30;;;19.40;;
76818;SDS011;65772;51.096;17.006;2023-04-06T07:53:11;37.20;;;21.30;;
76818;SDS011;65772;51.096;17.006;2023-04-06T07:55:42;36.90;;;21.60;;
76818;SDS011;65772;51.096;17.006;2023-04-06T07:58:13;35.60;;;21.40;;
76818;SDS011;65772;51.096;17.006;2023-04-06T08:00:44;37.50;;;21.30;;
76818;SDS011;65772;51.096;17.006;2023-04-06T08:03:14;35.90;;;19.10;;
76818;SDS011;65772;51.096;17.006;2023-04-06T08:05:45;35.90;;;20.50;;
76818;SDS011;65772;51.096;17.006;2023-04-06T08:08:16;33.30;;;19.20;;
76818;SDS011;65772;51.096;17.006;2023-04-06T08:10:46;35.40;;;19.70;;
76818;SDS011;65772;51.096;17.006;2023-04-06T08:13:17;26.80;;;14.90;;
76818;SDS011;65772;51.096;17.006;2023-04-06T08:15:47;25.60;;;14.50;;
76818;SDS011;65772;51.096;17.006;2023-04-06T08:18:18;27.70;;;14.90;;
76818;SDS011;65772;51.096;17.006;2023-04-06T08:20:49;26.20;;;14.20;;
76818;SDS011;65772;51.096;17.006;2023-04-06T08:23:19;25.80;;;14.00;;
76818;SDS011;65772;51.096;17.006;2023-04-06T08:25:50;27.10;;;14.40;;
76818;SDS011;65772;51.096;17.006;2023-04-06T08:28:21;23.30;;;13.40;;
76818;SDS011;65772;51.096;17.006;2023-04-06T08:30:52;24.80;;;13.60;;
76818;SDS011;65772;51.096;17.006;2023-04-06T08:33:23;23.10;;;12.70;;
76818;SDS011;65772;51.096;17.006;2023-04-06T08:35:53;24.10;;;12.00;;
76818;SDS011;65772;51.096;17.006;2023-04-06T08:38:24;24.60;;;11.70;;
76818;SDS011;65772;51.096;17.006;2023-04-06T08:40:54;20.60;;;10.90;;
76818;SDS011;65772;51.096;17.006;2023-04-06T08:43:25;17.00;;;10.50;;
76818;SDS011;65772;51.096;17.006;2023-04-06T08:45:58;17.30;;;10.00;;
76818;SDS011;65772;51.096;17.006;2023-04-06T08:48:28;18.60;;;10.40;;
76818;SDS011;65772;51.096;17.006;2023-04-06T08:50:59;18.20;;;10.80;;
76818;SDS011;65772;51.096;17.006;2023-04-06T08:53:30;22.80;;;11.40;;
76818;SDS011;65772;51.096;17.006;2023-04-06T08:56:01;20.70;;;10.80;;
76818;SDS011;65772;51.096;17.006;2023-04-06T08:58:34;18.60;;;12.00;;
76818;SDS011;65772;51.096;17.006;2023-04-06T09:01:08;21.80;;;9.90;;
76818;SDS011;65772;51.096;17.006;2023-04-06T09:03:43;16.90;;;9.80;;
76818;SDS011;65772;51.096;17.006;2023-04-06T09:06:15;18.40;;;9.30;;
76818;SDS011;65772;51.096;17.006;2023-04-06T09:08:46;19.60;;;8.50;;
76818;SDS011;65772;51.096;17.006;2023-04-06T09:11:17;16.60;;;8.70;;
76818;SDS011;65772;51.096;17.006;2023-04-06T09:13:48;14.20;;;8.10;;
76818;SDS011;65772;51.096;17.006;2023-04-06T09:16:20;15.50;;;8.60;;
76818;SDS011;65772;51.096;17.006;2023-04-06T09:18:51;16.20;;;8.90;;
76818;SDS011;65772;51.096;17.006;2023-04-06T09:21:22;19.40;;;9.50;;
76818;SDS011;65772;51.096;17.006;2023-04-06T09:23:59;16.70;;;9.70;;
76818;SDS011;65772;51.096;17.006;2023-04-06T09:26:30;14.50;;;8.90;;
76818;SDS011;65772;51.096;17.006;2023-04-06T09:29:03;15.90;;;9.60;;
76818;SDS011;65772;51.096;17.006;2023-04-06T09:31:34;17.10;;;10.50;;
76818;SDS011;65772;51.096;17.006;2023-04-06T09:34:04;16.90;;;10.10;;
76818;SDS011;65772;51.096;17.006;2023-04-06T09:36:36;16.80;;;9.10;;
76818;SDS011;65772;51.096;17.006;2023-04-06T09:39:08;15.30;;;9.40;;
76818;SDS011;65772;51.096;17.006;2023-04-06T09:41:39;18.80;;;8.90;;
76818;SDS011;65772;51.096;17.006;2023-04-06T09:44:10;16.40;;;6.90;;
76818;SDS011;65772;51.096;17.006;2023-04-06T09:46:41;11.20;;;6.90;;
76818;SDS011;65772;51.096;17.006;2023-04-06T09:49:27;11.90;;;7.10;;
76818;SDS011;65772;51.096;17.006;2023-04-06T09:52:02;14.30;;;7.00;;
76818;SDS011;65772;51.096;17.006;2023-04-06T09:54:35;14.00;;;7.70;;
76818;SDS011;65772;51.096;17.006;2023-04-06T09:57:07;10.60;;;7.10;;
76818;SDS011;65772;51.096;17.006;2023-04-06T09:59:48;12.90;;;6.80;;
76818;SDS011;65772;51.096;17.006;2023-04-06T10:02:27;11.70;;;7.40;;
76818;SDS011;65772;51.096;17.006;2023-04-06T10:05:05;10.00;;;5.80;;
76818;SDS011;65772;51.096;17.006;2023-04-06T10:07:40;14.10;;;6.30;;
76818;SDS011;65772;51.096;17.006;2023-04-06T10:10:27;11.40;;;5.90;;
76818;SDS011;65772;51.096;17.006;2023-04-06T10:12:58;13.20;;;5.80;;
76818;SDS011;65772;51.096;17.006;2023-04-06T10:15:29;10.10;;;5.60;;
76818;SDS011;65772;51.096;17.006;2023-04-06T10:18:00;11.40;;;5.70;;
76818;SDS011;65772;51.096;17.006;2023-04-06T10:20:35;10.40;;;4.90;;
76818;SDS011;65772;51.096;17.006;2023-04-06T10:23:10;10.50;;;6.20;;
76818;SDS011;65772;51.096;17.006;2023-04-06T10:25:52;12.20;;;6.10;;
76818;SDS011;65772;51.096;17.006;2023-04-06T10:28:24;14.00;;;6.40;;
76818;SDS011;65772;51.096;17.006;2023-04-06T10:30:59;9.40;;;5.80;;
76818;SDS011;65772;51.096;17.006;2023-04-06T10:33:30;11.10;;;6.10;;
76818;SDS011;65772;51.096;17.006;2023-04-06T10:36:10;11.50;;;6.30;;
76818;SDS011;65772;51.096;17.006;2023-04-06T10:38:42;12.40;;;6.60;;
76818;SDS011;65772;51.096;17.006;2023-04-06T10:41:13;12.30;;;6.30;;
76818;SDS011;65772;51.096;17.006;2023-04-06T10:43:54;11.80;;;6.50;;
76818;SDS011;65772;51.096;17.006;2023-04-06T10:46:26;9.60;;;6.20;;
76818;SDS011;65772;51.096;17.006;2023-04-06T10:51:28;9.40;;;5.20;;
76818;SDS011;65772;51.096;17.006;2023-04-06T10:53:58;8.30;;;5.20;;
76818;SDS011;65772;51.096;17.006;2023-04-06T10:56:30;10.30;;;5.50;;
76818;SDS011;65772;51.096;17.006;2023-04-06T10:59:03;8.90;;;5.00;;
76818;SDS011;65772;51.096;17.006;2023-04-06T11:01:34;8.90;;;5.30;;
76818;SDS011;65772;51.096;17.006;2023-04-06T11:04:05;8.60;;;5.20;;
76818;SDS011;65772;51.096;17.006;2023-04-06T11:06:42;11.00;;;5.60;;
76818;SDS011;65772;51.096;17.006;2023-04-06T11:09:26;10.50;;;5.60;;
76818;SDS011;65772;51.096;17.006;2023-04-06T11:11:59;9.40;;;5.00;;
76818;SDS011;65772;51.096;17.006;2023-04-06T11:14:29;9.10;;;4.90;;
76818;SDS011;65772;51.096;17.006;2023-04-06T11:17:00;10.20;;;5.50;;
76818;SDS011;65772;51.096;17.006;2023-04-06T11:19:30;9.00;;;5.20;;
76818;SDS011;65772;51.096;17.006;2023-04-06T11:22:07;9.40;;;5.60;;
76818;SDS011;65772;51.096;17.006;2023-04-06T11:24:38;10.90;;;5.60;;
76818;SDS011;65772;51.096;17.006;2023-04-06T11:27:08;13.20;;;6.10;;
76818;SDS011;65772;51.096;17.006;2023-04-06T11:29:39;10.20;;;6.00;;
76818;SDS011;65772;51.096;17.006;2023-04-06T11:32:10;8.60;;;5.10;;
76818;SDS011;65772;51.096;17.006;2023-04-06T11:34:48;9.30;;;5.00;;
76818;SDS011;65772;51.096;17.006;2023-04-06T11:37:19;10.80;;;5.50;;
76818;SDS011;65772;51.096;17.006;2023-04-06T11:39:50;9.00;;;5.40;;
76818;SDS011;65772;51.096;17.006;2023-04-06T11:42:25;10.50;;;5.50;;
76818;SDS011;65772;51.096;17.006;2023-04-06T11:44:57;10.60;;;6.10;;
76818;SDS011;65772;51.096;17.006;2023-04-06T11:47:28;12.40;;;6.00;;
76818;SDS011;65772;51.096;17.006;2023-04-06T11:50:08;9.90;;;5.60;;
76818;SDS011;65772;51.096;17.006;2023-04-06T11:52:42;9.80;;;5.20;;
76818;SDS011;65772;51.096;17.006;2023-04-06T11:55:13;11.30;;;5.70;;
76818;SDS011;65772;51.096;17.006;2023-04-06T11:57:45;12.50;;;7.10;;
76818;SDS011;65772;51.096;17.006;2023-04-06T12:00:18;9.70;;;6.10;;
76818;SDS011;65772;51.096;17.006;2023-04-06T12:02:49;10.30;;;6.20;;
76818;SDS011;65772;51.096;17.006;2023-04-06T12:05:20;11.70;;;6.60;;
76818;SDS011;65772;51.096;17.006;2023-04-06T12:07:51;11.10;;;5.80;;
76818;SDS011;65772;51.096;17.006;2023-04-06T12:10:22;10.50;;;6.10;;
76818;SDS011;65772;51.096;17.006;2023-04-06T12:12:52;9.80;;;5.90;;
76818;SDS011;65772;51.096;17.006;2023-04-06T12:15:23;11.00;;;5.70;;
76818;SDS011;65772;51.096;17.006;2023-04-06T12:17:53;16.80;;;6.70;;
76818;SDS011;65772;51.096;17.006;2023-04-06T12:20:24;9.10;;;5.80;;
76818;SDS011;65772;51.096;17.006;2023-04-06T12:22:55;14.20;;;6.00;;
76818;SDS011;65772;51.096;17.006;2023-04-06T12:25:25;10.70;;;7.00;;
76818;SDS011;65772;51.096;17.006;2023-04-06T12:27:57;12.30;;;7.10;;
76818;SDS011;65772;51.096;17.006;2023-04-06T12:30:28;11.80;;;7.00;;
76818;SDS011;65772;51.096;17.006;2023-04-06T12:32:59;10.80;;;6.60;;
76818;SDS011;65772;51.096;17.006;2023-04-06T12:35:32;12.70;;;6.70;;
76818;SDS011;65772;51.096;17.006;2023-04-06T12:38:05;11.40;;;6.80;;
76818;SDS011;65772;51.096;17.006;2023-04-06T12:40:37;15.10;;;7.20;;
76818;SDS011;65772;51.096;17.006;2023-04-06T12:43:08;11.90;;;6.50;;
76818;SDS011;65772;51.096;17.006;2023-04-06T12:45:40;10.60;;;6.50;;
76818;SDS011;65772;51.096;17.006;2023-04-06T12:48:11;9.50;;;6.50;;
76818;SDS011;65772;51.096;17.006;2023-04-06T12:50:41;10.90;;;7.00;;
76818;SDS011;65772;51.096;17.006;2023-04-06T12:53:12;10.10;;;6.20;;
76818;SDS011;65772;51.096;17.006;2023-04-06T12:55:42;10.20;;;5.90;;
76818;SDS011;65772;51.096;17.006;2023-04-06T12:58:13;11.00;;;6.20;;
76818;SDS011;65772;51.096;17.006;2023-04-06T13:00:44;13.80;;;7.50;;
76818;SDS011;65772;51.096;17.006;2023-04-06T13:03:15;10.50;;;6.40;;
76818;SDS011;65772;51.096;17.006;2023-04-06T13:05:46;11.10;;;6.30;;
76818;SDS011;65772;51.096;17.006;2023-04-06T13:10:48;9.00;;;6.10;;
76818;SDS011;65772;51.096;17.006;2023-04-06T13:13:22;10.50;;;6.40;;
76818;SDS011;65772;51.096;17.006;2023-04-06T13:15:58;11.50;;;6.40;;
76818;SDS011;65772;51.096;17.006;2023-04-06T13:18:31;9.70;;;6.10;;
76818;SDS011;65772;51.096;17.006;2023-04-06T13:21:02;12.60;;;6.80;;
76818;SDS011;65772;51.096;17.006;2023-04-06T13:23:33;11.00;;;5.80;;
76818;SDS011;65772;51.096;17.006;2023-04-06T13:26:04;8.60;;;5.50;;
76818;SDS011;65772;51.096;17.006;2023-04-06T13:28:36;11.00;;;6.20;;
76818;SDS011;65772;51.096;17.006;2023-04-06T13:31:07;10.40;;;6.30;;
76818;SDS011;65772;51.096;17.006;2023-04-06T13:33:38;9.30;;;6.00;;
76818;SDS011;65772;51.096;17.006;2023-04-06T13:36:09;10.00;;;6.20;;
76818;SDS011;65772;51.096;17.006;2023-04-06T13:38:41;8.50;;;5.20;;
76818;SDS011;65772;51.096;17.006;2023-04-06T13:41:18;6.90;;;5.00;;
76818;SDS011;65772;51.096;17.006;2023-04-06T13:43:50;8.50;;;5.70;;
76818;SDS011;65772;51.096;17.006;2023-04-06T13:46:21;8.40;;;5.60;;
76818;SDS011;65772;51.096;17.006;2023-04-06T13:48:52;7.70;;;5.40;;
76818;SDS011;65772;51.096;17.006;2023-04-06T13:51:23;10.70;;;5.60;;
76818;SDS011;65772;51.096;17.006;2023-04-06T13:53:55;8.00;;;5.60;;
76818;SDS011;65772;51.096;17.006;2023-04-06T13:56:26;8.40;;;5.60;;
76818;SDS011;65772;51.096;17.006;2023-04-06T13:58:56;10.00;;;5.80;;
76818;SDS011;65772;51.096;17.006;2023-04-06T14:01:27;9.50;;;6.10;;
76818;SDS011;65772;51.096;17.006;2023-04-06T14:03:57;8.00;;;5.40;;
76818;SDS011;65772;51.096;17.006;2023-04-06T14:06:28;9.50;;;6.20;;
76818;SDS011;65772;51.096;17.006;2023-04-06T14:08:59;9.50;;;7.00;;
76818;SDS011;65772;51.096;17.006;2023-04-06T14:11:29;11.00;;;6.20;;
76818;SDS011;65772;51.096;17.006;2023-04-06T14:14:00;9.30;;;6.40;;
76818;SDS011;65772;51.096;17.006;2023-04-06T14:16:31;13.90;;;8.30;;
76818;SDS011;65772;51.096;17.006;2023-04-06T14:19:02;11.40;;;7.30;;
76818;SDS011;65772;51.096;17.006;2023-04-06T14:21:33;12.00;;;7.40;;
76818;SDS011;65772;51.096;17.006;2023-04-06T14:24:04;11.10;;;7.70;;
76818;SDS011;65772;51.096;17.006;2023-04-06T14:26:36;11.20;;;6.70;;
76818;SDS011;65772;51.096;17.006;2023-04-06T14:29:07;12.30;;;7.20;;
76818;SDS011;65772;51.096;17.006;2023-04-06T14:31:37;12.20;;;7.20;;
76818;SDS011;65772;51.096;17.006;2023-04-06T14:34:08;14.30;;;7.60;;
76818;SDS011;65772;51.096;17.006;2023-04-06T14:36:39;11.60;;;6.60;;
76818;SDS011;65772;51.096;17.006;2023-04-06T14:39:09;12.90;;;6.90;;
76818;SDS011;65772;51.096;17.006;2023-04-06T14:41:40;14.10;;;7.80;;
76818;SDS011;65772;51.096;17.006;2023-04-06T14:44:11;13.40;;;7.90;;
76818;SDS011;65772;51.096;17.006;2023-04-06T14:46:41;14.70;;;8.20;;
76818;SDS011;65772;51.096;17.006;2023-04-06T14:49:12;13.20;;;7.10;;
76818;SDS011;65772;51.096;17.006;2023-04-06T14:51:42;11.70;;;6.30;;
76818;SDS011;65772;51.096;17.006;2023-04-06T14:54:13;9.80;;;6.30;;
76818;SDS011;65772;51.096;17.006;2023-04-06T14:56:43;11.50;;;6.30;;
76818;SDS011;65772;51.096;17.006;2023-04-06T14:59:14;10.60;;;6.40;;